עמוד ראשי
METAR-TAF:

METAR-TAF

שדות תעופה :

Atqasuk, אלסקה, ארצות הברית

קו רוחב: 70-28-02N, קו אורך: 157-26-08W, גובה: 31מטר

תצפית מזג אוויר נוכחית

הדו"ח נערך לפני 21דקות, בשעה 18:56 UTC
רוח 6קשר מכיוון צפון/צפון-מערב
טמפרטורת 1 צלסיוס
לחות 93%
לחץ 1016 hPa
ראות: 16.1קילומטר
מעונן בגובה 200רגל

METAR: PATQ 171856Z AUTO 33006KT 10SM OVC002 01/00 A3001 RMK AO2 SLP168 T00060000 FZRANO TSNO

זמן: 11:17 (19:17 UTC)


TAF: חסר

תצפיות ותחזיות מזג אוויר לגבי יותר מ- 4,000 שדות תעופה ברחבי העולם. דוחות METAR ו- TAF.

התחנות הזמינות מסומנות בנקודות צהובות ואדומות על גבי המפה.

העבר את העכבר לנקודה הצבעונית על מנת לראות את שם התחנה.

לאחר מכן, לחץ כדי לראות את תוכן ואת תחזיות מזג האוויר.

כדי לשנות את המפה: לחץ על הכפתורים הירוקים עם הפלוס השחור כדי להתקרב; על הכפתור הירוק עם המקף כדי להתרחק; או בחיצים הירוקים למפות סמוכות.


METAR-TAF: